Alderson, Oklahoma
Current Conditions -  °F | °C
As of 10:23 AM on Saturday 22 Nov 2014 (Local Time) from KMLC Reporting Station
Thunderstorm Thunderstorm  
Wind Chill: 55°   Ceiling: 3600
Heat Index: 55°   Visibility: 0.75mi
Dew Point: 54°   Wind: 3mph
Humidity: 96%   Direction: 330°NNW
Pressure: 30.09"   Gusts: NA
Location:  34.9°N, 95.69°W
Report Text: KMLC 221623Z AUTO 33003KT 3/4SM +TSRA BR SCT011 BKN036 13/12 A3009 RMK AO2 LTG DSNT ALQDS P0045 T01280122
Loading
Personal Weather Stations






























Interactive Weather Map New forecast layout! Learn more

10-Day Weather Forecast

Advertisements
Track Severe Weather on mobile